Portada
METAR-TAF:

METAR-TAF

Aeropuertos :

Aeropuerto de Bluefields

Bluefields, Nicaragua

latitud: 12-00N, longitud: 083-46W, altitud: 5 m

Observación

El informe se hizo hace 3 horas y 33 minutos, a las 23:00 UTC
Viento 4 kt del norte-noreste
Temperatura 28°C
Humedad 74%
Presión 1014 hPa
Visibilidad 10 km o más
Nubes dispersas a una altura de 1900 ft

METAR: MNBL 222300Z 02004KT 9999 SCT019 28/23 Q1014

Hora: 20:33 (02:33 UTC)

Pronóstico

El informe se hizo hace 5 horas y 3 minutos, a las 21:30 UTC
Pronóstico válido del 23 a las 00 UTC al 23 a las 24 UTC
Viento 8 kt del norte
Visibilidad 10 km o más
Nubes dispersas a una altura de 2000 ft
Temporalmente
del 23 a las 04 UTC al 23 a las 10 UTC
Cielo nuboso a una altura de 1600 ft
Evolucionando progresivamente
del 23 a las 12 UTC al 23 a las 14 UTC
Viento 12 kt del norte
Cielo nuboso a una altura de 1800 ft

TAF: MNBL 222130Z 2300/2324 35008KT 9999 SCT020 TEMPO 2304/2310 BKN016 BECMG 2312/2314 01012KT BKN018

Observaciones y pronósticos meteorológicos de más de 4000 aeropuertos (mensajes METAR y TAF).

Los puntos amarillos y rojos representan las estaciones disponibles.

Ponga el ratón en el punto deseado para ver el nombre de la estación.

Haga clic para ver las observaciones y los pronósticos meteorológicos.

Para cambiar el mapa : haga clic en los botones verdes con una cruz de color negro para hacer un zoom, en el botón verde con un guión para alejar o en las flechas verdes para mapas adyacentes.


METAR-TAF: